Time;durP1;ratioP1;P1;durP2;ratioP2;P2;SDS_P1;SDS_P2;PMS_P1;PMS_P2;Temp;Humidity;BMP_temperature;BMP_pressure;BME280_temperature;BME280_humidity;BME280_pressure;Samples;Min_cycle;Max_cycle;Signal;HPM_P1;HPM_P2
2021/01/12 00:01:58;;;;;;;;;;;;;;;;;;5077790;28;19916;-58
2021/01/12 00:04:24;;;;;;;;;;;;;;;;;;5077724;28;19915;-59
2021/01/12 00:06:50;;;;;;;;;;;;;;;;;;5077353;28;19922;-58
2021/01/12 00:09:16;;;;;;;;;;;;;;;;;;5077422;28;19938;-58
2021/01/12 00:11:42;;;;;;;;;;;;;;;;;;5077175;28;20288;-59
2021/01/12 00:14:53;;;;;;;;;;;;;;;;;;5077180;28;19918;-58
2021/01/12 00:16:54;;;;;;;;;;;;;;;;;;5059683;28;19946;-58
2021/01/12 00:19:20;;;;;;;;;;;;;;;;;;5077026;28;20387;-58
2021/01/12 00:21:46;;;;;;;;;;;;;;;;;;5077026;28;19919;-59
2021/01/12 00:24:12;;;;;;;;;;;;;;;;;;5077033;28;19939;-58
2021/01/12 00:26:38;;;;;;;;;;;;;;;;;;5076950;28;20345;-59
2021/01/12 00:29:04;;;;;;;;;;;;;;;;;;5077184;28;19921;-58
2021/01/12 00:31:30;;;;;;;;;;;;;;;;;;5058851;28;20379;-58
2021/01/12 00:33:56;;;;;;;;;;;;;;;;;;5076916;28;19993;-58
2021/01/12 00:36:22;;;;;;;;;;;;;;;;;;5076657;28;19923;-59
2021/01/12 00:38:48;;;;;;;;;;;;;;;;;;5076715;28;19975;-58
2021/01/12 00:41:14;;;;;;;;;;;;;;;;;;5058647;28;19966;-59
2021/01/12 00:43:40;;;;;;;;;;;;;;;;;;5058686;28;20302;-58
2021/01/12 00:46:06;;;;;;;;;;;;;;;;;;5076488;28;20005;-58
2021/01/12 00:48:32;;;;;;;;;;;;;;;;;;5076850;28;19980;-59
2021/01/12 00:50:58;;;;;;;;;;;;;;;;;;5076588;28;20370;-59
2021/01/12 00:53:24;;;;;;;;;;;;;;;;;;5076796;28;19919;-60
2021/01/12 00:55:50;;;;;;;;;;;;;;;;;;5058684;28;20269;-58
2021/01/12 00:58:16;;;;;;;;;;;;;;;;;;5076366;28;19947;-58
2021/01/12 01:00:42;;;;;;;;;;;;;;;;;;5076231;28;20482;-58
2021/01/12 01:03:08;;;;;;;;;;;;;;;;;;5076541;28;19917;-58
2021/01/12 01:05:34;;;;;;;;;;;;;;;;;;5076273;28;19918;-58
2021/01/12 01:08:02;;;;;;;;;;;;;;;;;;5076229;28;20381;-59
2021/01/12 01:10:28;;;;;;;;;;;;;;;;;;5058456;28;20001;-59
2021/01/12 01:12:54;;;;;;;;;;;;;;;;;;5075375;28;19961;-58
2021/01/12 01:15:20;;;;;;;;;;;;;;;;;;5076383;28;19927;-58
2021/01/12 01:17:46;;;;;;;;;;;;;;;;;;5075987;28;19945;-59
2021/01/12 01:20:12;;;;;;;;;;;;;;;;;;5076015;28;19943;-58
2021/01/12 01:22:38;;;;;;;;;;;;;;;;;;5076024;28;19942;-59
2021/01/12 01:25:04;;;;;;;;;;;;;;;;;;5075925;28;19985;-58
2021/01/12 01:27:29;;;;;;;;;;;;;;;;;;5075703;28;19904;-58
2021/01/12 01:29:55;;;;;;;;;;;;;;;;;;5075655;28;19929;-58
2021/01/12 01:32:21;;;;;;;;;;;;;;;;;;5075969;28;20006;-58
2021/01/12 01:34:47;;;;;;;;;;;;;;;;;;5076019;28;20439;-58
2021/01/12 01:37:13;;;;;;;;;;;;;;;;;;5075415;28;20005;-58
2021/01/12 01:39:39;;;;;;;;;;;;;;;;;;5075590;28;19904;-58
2021/01/12 01:42:05;;;;;;;;;;;;;;;;;;5075491;28;19909;-58
2021/01/12 01:44:31;;;;;;;;;;;;;;;;;;5075834;28;19966;-59
2021/01/12 01:46:57;;;;;;;;;;;;;;;;;;5075494;28;19938;-59
2021/01/12 01:49:23;;;;;;;;;;;;;;;;;;5075725;28;19926;-59
2021/01/12 01:51:49;;;;;;;;;;;;;;;;;;5075558;28;20272;-58
2021/01/12 01:54:15;;;;;;;;;;;;;;;;;;5075505;28;19919;-58
2021/01/12 01:56:41;;;;;;;;;;;;;;;;;;5075070;28;20408;-58
2021/01/12 01:59:07;;;;;;;;;;;;;;;;;;5075654;28;19920;-58
2021/01/12 02:01:33;;;;;;;;;;;;;;;;;;5075215;28;20377;-58
2021/01/12 02:03:59;;;;;;;;;;;;;;;;;;5075395;28;19919;-58
2021/01/12 02:06:25;;;;;;;;;;;;;;;;;;5075298;28;20006;-58
2021/01/12 02:08:51;;;;;;;;;;;;;;;;;;5075000;28;20329;-59
2021/01/12 02:11:17;;;;;;;;;;;;;;;;;;5075069;28;19985;-58
2021/01/12 02:13:43;;;;;;;;;;;;;;;;;;5074878;28;19915;-58
2021/01/12 02:16:09;;;;;;;;;;;;;;;;;;5075297;28;19939;-58
2021/01/12 02:18:35;;;;;;;;;;;;;;;;;;5074840;28;20003;-58
2021/01/12 02:21:01;;;;;;;;;;;;;;;;;;5074883;28;19955;-58
2021/01/12 02:23:28;;;;;;;;;;;;;;;;;;5073977;28;20423;-59
2021/01/12 02:25:54;;;;;;;;;;;;;;;;;;5074989;28;19919;-59
2021/01/12 02:28:20;;;;;;;;;;;;;;;;;;5074637;28;19942;-59
2021/01/12 02:30:46;;;;;;;;;;;;;;;;;;5074611;28;20017;-58
2021/01/12 02:33:12;;;;;;;;;;;;;;;;;;5074706;28;19948;-58
2021/01/12 02:35:38;;;;;;;;;;;;;;;;;;5074573;28;19904;-59
2021/01/12 02:38:04;;;;;;;;;;;;;;;;;;5074424;28;20507;-59
2021/01/12 02:40:30;;;;;;;;;;;;;;;;;;5074472;28;19915;-58
2021/01/12 02:42:56;;;;;;;;;;;;;;;;;;5074348;28;19920;-58
2021/01/12 02:45:22;;;;;;;;;;;;;;;;;;5074536;28;19904;-59
2021/01/12 02:47:48;;;;;;;;;;;;;;;;;;5074188;28;19943;-58
2021/01/12 02:50:15;;;;;;;;;;;;;;;;;;5074413;28;19937;-59
2021/01/12 02:52:41;;;;;;;;;;;;;;;;;;5074229;28;20009;-59
2021/01/12 02:55:07;;;;;;;;;;;;;;;;;;5074249;28;19952;-58
2021/01/12 02:57:33;;;;;;;;;;;;;;;;;;5074030;28;19940;-62
2021/01/12 02:59:59;;;;;;;;;;;;;;;;;;5074178;28;19923;-59
2021/01/12 03:02:25;;;;;;;;;;;;;;;;;;5074357;28;19920;-59
2021/01/12 03:04:51;;;;;;;;;;;;;;;;;;5074030;28;19938;-58
2021/01/12 03:07:17;;;;;;;;;;;;;;;;;;5074040;28;19924;-59
2021/01/12 03:09:43;;;;;;;;;;;;;;;;;;5074048;28;20019;-58
2021/01/12 03:12:09;;;;;;;;;;;;;;;;;;5073979;28;20282;-58
2021/01/12 03:14:35;;;;;;;;;;;;;;;;;;5073958;28;19949;-59
2021/01/12 03:17:01;;;;;;;;;;;;;;;;;;5073852;28;20097;-58
2021/01/12 03:19:27;;;;;;;;;;;;;;;;;;5073832;28;19952;-58
2021/01/12 03:21:53;;;;;;;;;;;;;;;;;;5074176;28;20452;-59
2021/01/12 03:24:19;;;;;;;;;;;;;;;;;;5073953;28;19936;-59
2021/01/12 03:26:45;;;;;;;;;;;;;;;;;;5074004;28;20013;-59
2021/01/12 03:29:11;;;;;;;;;;;;;;;;;;5073695;28;19915;-59
2021/01/12 03:31:37;;;;;;;;;;;;;;;;;;5055768;28;20250;-59
2021/01/12 03:34:03;;;;;;;;;;;;;;;;;;5073677;28;19947;-59
2021/01/12 03:36:29;;;;;;;;;;;;;;;;;;5055273;28;19950;-59
2021/01/12 03:38:55;;;;;;;;;;;;;;;;;;5073608;28;20043;-58
2021/01/12 03:41:21;;;;;;;;;;;;;;;;;;5073738;28;19904;-59
2021/01/12 03:43:47;;;;;;;;;;;;;;;;;;5073594;28;19904;-59
2021/01/12 03:46:13;;;;;;;;;;;;;;;;;;5055661;28;19925;-59
2021/01/12 03:48:39;;;;;;;;;;;;;;;;;;5073409;28;20392;-59
2021/01/12 03:51:05;;;;;;;;;;;;;;;;;;5073842;28;19908;-59
2021/01/12 03:53:31;;;;;;;;;;;;;;;;;;5073444;28;19915;-58
2021/01/12 03:55:57;;;;;;;;;;;;;;;;;;5073555;28;20000;-59
2021/01/12 03:58:24;;;;;;;;;;;;;;;;;;5073299;28;19942;-58
2021/01/12 04:00:50;;;;;;;;;;;;;;;;;;5073711;28;19919;-58
2021/01/12 04:03:16;;;;;;;;;;;;;;;;;;5073761;28;19930;-59
2021/01/12 04:05:42;;;;;;;;;;;;;;;;;;5073491;28;19921;-58
2021/01/12 04:08:08;;;;;;;;;;;;;;;;;;5073527;28;19946;-58
2021/01/12 04:10:34;;;;;;;;;;;;;;;;;;5073368;28;20309;-58
2021/01/12 04:12:59;;;;;;;;;;;;;;;;;;5073549;28;20002;-58
2021/01/12 04:15:26;;;;;;;;;;;;;;;;;;5073386;28;19972;-59
2021/01/12 04:17:52;;;;;;;;;;;;;;;;;;5073263;28;19943;-59
2021/01/12 04:20:18;;;;;;;;;;;;;;;;;;5073395;28;19995;-58
2021/01/12 04:22:44;;;;;;;;;;;;;;;;;;5073478;28;19919;-58
2021/01/12 04:25:10;;;;;;;;;;;;;;;;;;5073175;28;20435;-58
2021/01/12 04:27:36;;;;;;;;;;;;;;;;;;5073237;28;19936;-58
2021/01/12 04:30:03;;;;;;;;;;;;;;;;;;5073100;28;20373;-58
2021/01/12 04:32:31;;;;;;;;;;;;;;;;;;5073289;28;20053;-58
2021/01/12 04:34:57;;;;;;;;;;;;;;;;;;5073049;28;19911;-58
2021/01/12 04:37:23;;;;;;;;;;;;;;;;;;5072985;28;19916;-58
2021/01/12 04:39:49;;;;;;;;;;;;;;;;;;5073012;28;19950;-58
2021/01/12 04:42:15;;;;;;;;;;;;;;;;;;5073034;28;20009;-58
2021/01/12 04:44:41;;;;;;;;;;;;;;;;;;5073149;28;19974;-58
2021/01/12 04:47:07;;;;;;;;;;;;;;;;;;5074038;28;20259;-58
2021/01/12 04:49:33;;;;;;;;;;;;;;;;;;5076587;28;19961;-58
2021/01/12 04:51:59;;;;;;;;;;;;;;;;;;5076751;28;19964;-58
2021/01/12 04:54:25;;;;;;;;;;;;;;;;;;5076509;28;19957;-58
2021/01/12 04:56:51;;;;;;;;;;;;;;;;;;5076490;28;19917;-58
2021/01/12 04:59:17;;;;;;;;;;;;;;;;;;5076596;28;19912;-58
2021/01/12 05:01:43;;;;;;;;;;;;;;;;;;5068586;28;19975;-58
2021/01/12 05:04:09;;;;;;;;;;;;;;;;;;5062730;28;19991;-58
2021/01/12 05:06:35;;;;;;;;;;;;;;;;;;5059754;28;19905;-58
2021/01/12 05:09:01;;;;;;;;;;;;;;;;;;5056156;28;20254;-58
2021/01/12 05:11:27;;;;;;;;;;;;;;;;;;5066900;28;19920;-58
2021/01/12 05:13:53;;;;;;;;;;;;;;;;;;5076183;28;19947;-58
2021/01/12 05:16:19;;;;;;;;;;;;;;;;;;5076326;28;20209;-58
2021/01/12 05:18:45;;;;;;;;;;;;;;;;;;5076093;28;19912;-58
2021/01/12 05:21:12;;;;;;;;;;;;;;;;;;5076122;28;20284;-59
2021/01/12 05:23:38;;;;;;;;;;;;;;;;;;5075984;28;19931;-58
2021/01/12 05:26:04;;;;;;;;;;;;;;;;;;5075782;28;20027;-58
2021/01/12 05:28:31;;;;;;;;;;;;;;;;;;5075961;28;20001;-58
2021/01/12 05:30:57;;;;;;;;;;;;;;;;;;5075779;28;19921;-58
2021/01/12 05:33:23;;;;;;;;;;;;;;;;;;5075804;28;19922;-58
2021/01/12 05:35:49;;;;;;;;;;;;;;;;;;5075663;28;22272;-58
2021/01/12 05:38:15;;;;;;;;;;;;;;;;;;5075498;28;20003;-58
2021/01/12 05:40:41;;;;;;;;;;;;;;;;;;5071447;28;19946;-58
2021/01/12 05:43:07;;;;;;;;;;;;;;;;;;5072926;28;19919;-58
2021/01/12 05:45:33;;;;;;;;;;;;;;;;;;5073070;28;19912;-58
2021/01/12 05:47:59;;;;;;;;;;;;;;;;;;5061903;28;20289;-58
2021/01/12 05:50:25;;;;;;;;;;;;;;;;;;5069920;28;19919;-57
2021/01/12 05:52:51;;;;;;;;;;;;;;;;;;5073223;28;19928;-58
2021/01/12 05:55:17;;;;;;;;;;;;;;;;;;5073587;28;19941;-58
2021/01/12 05:57:43;;;;;;;;;;;;;;;;;;5073292;28;19942;-58
2021/01/12 06:00:09;;;;;;;;;;;;;;;;;;5074524;28;19915;-58
2021/01/12 06:02:35;;;;;;;;;;;;;;;;;;5075234;28;19915;-57
2021/01/12 06:05:01;;;;;;;;;;;;;;;;;;5075113;28;19981;-57
2021/01/12 06:07:27;;;;;;;;;;;;;;;;;;5075206;28;19923;-58
2021/01/12 06:09:53;;;;;;;;;;;;;;;;;;5074979;28;19919;-58
2021/01/12 06:12:19;;;;;;;;;;;;;;;;;;5074865;28;19919;-57
2021/01/12 06:14:45;;;;;;;;;;;;;;;;;;5075264;28;19919;-58
2021/01/12 06:17:11;;;;;;;;;;;;;;;;;;5074968;28;20472;-58
2021/01/12 06:19:38;;;;;;;;;;;;;;;;;;5075053;28;19908;-58
2021/01/12 06:22:04;;;;;;;;;;;;;;;;;;5074763;28;19919;-58
2021/01/12 06:24:30;;;;;;;;;;;;;;;;;;5074794;28;19993;-56
2021/01/12 06:26:56;;;;;;;;;;;;;;;;;;5074602;28;20370;-58
2021/01/12 06:29:22;;;;;;;;;;;;;;;;;;5074620;28;19958;-58
2021/01/12 06:31:48;;;;;;;;;;;;;;;;;;5074441;28;19920;-58
2021/01/12 06:34:14;;;;;;;;;;;;;;;;;;5074688;28;19915;-58
2021/01/12 06:36:40;;;;;;;;;;;;;;;;;;5074225;28;20426;-58
2021/01/12 06:39:05;;;;;;;;;;;;;;;;;;5074537;28;19944;-58
2021/01/12 06:41:31;;;;;;;;;;;;;;;;;;5074489;28;19925;-58
2021/01/12 06:43:57;;;;;;;;;;;;;;;;;;5074457;28;19904;-58
2021/01/12 06:46:23;;;;;;;;;;;;;;;;;;5074441;28;19914;-58
2021/01/12 06:48:49;;;;;;;;;;;;;;;;;;5074169;28;20369;-58
2021/01/12 06:51:15;;;;;;;;;;;;;;;;;;5074005;28;19996;-58
2021/01/12 06:53:41;;;;;;;;;;;;;;;;;;5073927;28;19905;-58
2021/01/12 06:56:07;;;;;;;;;;;;;;;;;;5074326;28;19917;-58
2021/01/12 06:58:33;;;;;;;;;;;;;;;;;;5070442;28;19947;-57
2021/01/12 07:01:00;;;;;;;;;;;;;;;;;;5065548;28;20367;-58
2021/01/12 07:03:26;;;;;;;;;;;;;;;;;;5074153;28;19908;-58
2021/01/12 07:05:52;;;;;;;;;;;;;;;;;;5063008;28;20345;-58
2021/01/12 07:08:18;;;;;;;;;;;;;;;;;;5059556;28;19968;-58
2021/01/12 07:10:44;;;;;;;;;;;;;;;;;;5053367;28;19945;-58
2021/01/12 07:13:10;;;;;;;;;;;;;;;;;;5055208;28;19923;-58
2021/01/12 07:15:36;;;;;;;;;;;;;;;;;;5053872;28;19984;-58
2021/01/12 07:18:01;;;;;;;;;;;;;;;;;;5053770;28;20039;-57
2021/01/12 07:20:27;;;;;;;;;;;;;;;;;;5053842;28;19949;-58
2021/01/12 07:22:53;;;;;;;;;;;;;;;;;;5056157;28;19943;-58
2021/01/12 07:25:19;;;;;;;;;;;;;;;;;;5060829;28;19921;-58
2021/01/12 07:27:45;;;;;;;;;;;;;;;;;;5056707;28;20384;-58
2021/01/12 07:30:11;;;;;;;;;;;;;;;;;;5065581;28;19926;-58
2021/01/12 07:32:38;;;;;;;;;;;;;;;;;;5066205;28;20376;-58
2021/01/12 07:35:04;;;;;;;;;;;;;;;;;;5061013;28;20006;-53
2021/01/12 07:37:31;;;;;;;;;;;;;;;;;;5069161;28;19974;-56
2021/01/12 07:39:57;;;;;;;;;;;;;;;;;;5073679;28;19915;-59
2021/01/12 07:42:23;;;;;;;;;;;;;;;;;;5073950;28;19920;-58
2021/01/12 07:44:49;;;;;;;;;;;;;;;;;;5073756;28;19948;-59
2021/01/12 07:47:15;;;;;;;;;;;;;;;;;;5073760;28;19925;-58
2021/01/12 07:49:41;;;;;;;;;;;;;;;;;;5073600;28;20318;-58
2021/01/12 07:52:07;;;;;;;;;;;;;;;;;;5073449;28;19973;-58
2021/01/12 07:54:33;;;;;;;;;;;;;;;;;;5073508;28;19976;-58
2021/01/12 07:56:58;;;;;;;;;;;;;;;;;;5073412;28;19926;-58
2021/01/12 07:59:24;;;;;;;;;;;;;;;;;;5073646;28;20339;-58
2021/01/12 08:01:50;;;;;;;;;;;;;;;;;;5073638;28;19927;-58
2021/01/12 08:04:16;;;;;;;;;;;;;;;;;;5073635;28;20339;-59
2021/01/12 08:06:42;;;;;;;;;;;;;;;;;;5073576;28;19943;-58
2021/01/12 08:09:08;;;;;;;;;;;;;;;;;;5073322;28;20033;-59
2021/01/12 08:11:35;;;;;;;;;;;;;;;;;;5073327;28;20016;-58
2021/01/12 08:14:01;;;;;;;;;;;;;;;;;;5073307;28;19915;-59
2021/01/12 08:16:27;;;;;;;;;;;;;;;;;;5073269;28;19966;-59
2021/01/12 08:18:53;;;;;;;;;;;;;;;;;;5073237;28;20041;-61
2021/01/12 08:21:19;;;;;;;;;;;;;;;;;;5073366;28;19922;-61
2021/01/12 08:23:45;;;;;;;;;;;;;;;;;;5076811;28;20411;-61
2021/01/12 08:26:11;;;;;;;;;;;;;;;;;;5077392;28;19923;-61
2021/01/12 08:28:37;;;;;;;;;;;;;;;;;;5077120;28;19919;-61
2021/01/12 08:31:03;;;;;;;;;;;;;;;;;;5077282;28;19957;-61
2021/01/12 08:33:29;;;;;;;;;;;;;;;;;;5076827;28;19943;-61
2021/01/12 08:35:55;;;;;;;;;;;;;;;;;;5076838;28;19995;-61
2021/01/12 08:38:20;;;;;;;;;;;;;;;;;;5076551;28;19977;-59
2021/01/12 08:40:46;;;;;;;;;;;;;;;;;;5076960;28;20380;-58
2021/01/12 08:43:12;;;;;;;;;;;;;;;;;;5076611;28;19929;-59
2021/01/12 08:45:38;;;;;;;;;;;;;;;;;;5076623;28;19904;-58
2021/01/12 08:48:04;;;;;;;;;;;;;;;;;;5076776;28;19925;-59
2021/01/12 08:50:30;;;;;;;;;;;;;;;;;;5075772;28;19954;-58
2021/01/12 08:52:56;;;;;;;;;;;;;;;;;;5063539;28;19925;-58
2021/01/12 08:55:22;;;;;;;;;;;;;;;;;;5056587;28;19905;-58
2021/01/12 08:57:48;;;;;;;;;;;;;;;;;;5056508;28;20333;-59
2021/01/12 09:00:14;;;;;;;;;;;;;;;;;;5056834;28;19917;-59
2021/01/12 09:02:40;;;;;;;;;;;;;;;;;;5056309;28;19919;-58
2021/01/12 09:05:07;;;;;;;;;;;;;;;;;;5056343;28;19929;-58
2021/01/12 09:07:33;;;;;;;;;;;;;;;;;;5056347;28;20009;-58
2021/01/12 09:09:59;;;;;;;;;;;;;;;;;;5056063;28;20010;-56
2021/01/12 09:12:25;;;;;;;;;;;;;;;;;;5056234;28;20344;-58
2021/01/12 09:14:51;;;;;;;;;;;;;;;;;;5059508;28;19924;-58
2021/01/12 09:17:17;;;;;;;;;;;;;;;;;;5076350;28;19938;-58
2021/01/12 09:19:43;;;;;;;;;;;;;;;;;;5076212;28;19978;-58
2021/01/12 09:22:09;;;;;;;;;;;;;;;;;;5075953;28;19919;-58
2021/01/12 09:24:35;;;;;;;;;;;;;;;;;;5076159;28;19935;-58
2021/01/12 09:27:01;;;;;;;;;;;;;;;;;;5076027;28;19942;-59
2021/01/12 09:29:27;;;;;;;;;;;;;;;;;;5076044;28;19947;-58
2021/01/12 09:31:53;;;;;;;;;;;;;;;;;;5071685;28;19976;-58
2021/01/12 09:34:19;;;;;;;;;;;;;;;;;;5055198;28;19978;-58
2021/01/12 09:36:45;;;;;;;;;;;;;;;;;;5065984;28;19944;-58
2021/01/12 09:39:12;;;;;;;;;;;;;;;;;;5065781;28;19952;-58
2021/01/12 09:41:38;;;;;;;;;;;;;;;;;;5067406;28;20036;-58
2021/01/12 09:44:04;;;;;;;;;;;;;;;;;;5058100;28;20385;-59
2021/01/12 09:46:30;;;;;;;;;;;;;;;;;;5064287;28;19916;-59
2021/01/12 09:48:56;;;;;;;;;;;;;;;;;;5066703;28;19927;-59
2021/01/12 09:51:22;;;;;;;;;;;;;;;;;;5066082;28;19919;-58
2021/01/12 09:53:51;;;;;;;;;;;;;;;;;;5064749;28;19999;-57
2021/01/12 09:56:17;;;;;;;;;;;;;;;;;;5068194;28;19930;-59
2021/01/12 09:58:43;;;;;;;;;;;;;;;;;;5060855;28;19943;-58
2021/01/12 10:01:09;;;;;;;;;;;;;;;;;;5062501;28;20352;-57
2021/01/12 10:03:35;;;;;;;;;;;;;;;;;;5061112;28;19919;-58
2021/01/12 10:06:01;;;;;;;;;;;;;;;;;;5065025;28;19956;-58
2021/01/12 10:08:27;;;;;;;;;;;;;;;;;;5063008;28;20382;-58
2021/01/12 10:10:53;;;;;;;;;;;;;;;;;;5066412;28;19927;-58
2021/01/12 10:13:19;;;;;;;;;;;;;;;;;;5065578;28;20358;-59
2021/01/12 10:15:45;;;;;;;;;;;;;;;;;;5064691;28;19918;-59
2021/01/12 10:18:11;;;;;;;;;;;;;;;;;;5052789;28;19951;-57
2021/01/12 10:20:37;;;;;;;;;;;;;;;;;;5064991;28;19921;-59
2021/01/12 10:23:03;;;;;;;;;;;;;;;;;;5058866;28;20284;-58
2021/01/12 10:25:29;;;;;;;;;;;;;;;;;;5058834;28;19942;-59
2021/01/12 10:27:56;;;;;;;;;;;;;;;;;;5067638;28;19922;-59
2021/01/12 10:30:22;;;;;;;;;;;;;;;;;;5074682;28;19916;-59
2021/01/12 10:32:48;;;;;;;;;;;;;;;;;;5074897;28;20358;-59
2021/01/12 10:35:14;;;;;;;;;;;;;;;;;;5066480;28;20312;-59
2021/01/12 10:37:40;;;;;;;;;;;;;;;;;;5036448;28;19955;-58
2021/01/12 10:40:06;;;;;;;;;;;;;;;;;;5054603;28;19999;-59
2021/01/12 10:42:33;;;;;;;;;;;;;;;;;;5053979;28;20505;-59
2021/01/12 10:44:59;;;;;;;;;;;;;;;;;;5053513;28;20269;-58
2021/01/12 10:47:25;;;;;;;;;;;;;;;;;;5061907;28;19927;-59
2021/01/12 10:49:51;;;;;;;;;;;;;;;;;;5073049;28;19926;-58
2021/01/12 10:52:17;;;;;;;;;;;;;;;;;;5066607;28;19958;-55
2021/01/12 10:54:46;;;;;;;;;;;;;;;;;;5058436;28;19983;-58
2021/01/12 10:57:12;;;;;;;;;;;;;;;;;;5065548;28;20337;-58
2021/01/12 10:59:38;;;;;;;;;;;;;;;;;;5044764;28;20383;-58
2021/01/12 11:02:05;;;;;;;;;;;;;;;;;;5066139;28;19920;-59
2021/01/12 11:04:31;;;;;;;;;;;;;;;;;;5054177;28;19927;-58
2021/01/12 11:06:58;;;;;;;;;;;;;;;;;;5068648;28;20430;-58
2021/01/12 11:09:24;;;;;;;;;;;;;;;;;;5071779;28;19934;-58
2021/01/12 11:11:50;;;;;;;;;;;;;;;;;;5071135;28;20026;-58
2021/01/12 11:14:18;;;;;;;;;;;;;;;;;;5063525;28;19926;-57
2021/01/12 11:16:44;;;;;;;;;;;;;;;;;;5062821;28;19920;-58
2021/01/12 11:19:10;;;;;;;;;;;;;;;;;;5063131;28;19962;-58
2021/01/12 11:21:36;;;;;;;;;;;;;;;;;;5064928;28;20299;-62
2021/01/12 11:24:02;;;;;;;;;;;;;;;;;;5068522;28;20343;-59
2021/01/12 11:26:28;;;;;;;;;;;;;;;;;;5064378;28;19957;-57
2021/01/12 11:28:54;;;;;;;;;;;;;;;;;;5069969;28;20009;-59
2021/01/12 11:31:20;;;;;;;;;;;;;;;;;;5073712;28;20294;-59
2021/01/12 11:33:46;;;;;;;;;;;;;;;;;;5073860;28;19989;-56
2021/01/12 11:36:12;;;;;;;;;;;;;;;;;;5061918;28;19935;-59
2021/01/12 11:38:38;;;;;;;;;;;;;;;;;;5068254;28;19960;-59
2021/01/12 11:41:04;;;;;;;;;;;;;;;;;;5059931;28;19935;-59
2021/01/12 11:43:30;;;;;;;;;;;;;;;;;;5053661;28;19909;-58
2021/01/12 11:45:56;;;;;;;;;;;;;;;;;;5053623;28;19932;-59
2021/01/12 11:48:22;;;;;;;;;;;;;;;;;;5053386;28;19925;-58
2021/01/12 11:50:48;;;;;;;;;;;;;;;;;;5053360;28;20037;-58
2021/01/12 11:53:14;;;;;;;;;;;;;;;;;;5053517;28;20299;-59
2021/01/12 11:55:40;;;;;;;;;;;;;;;;;;5053636;28;19969;-58
2021/01/12 11:58:06;;;;;;;;;;;;;;;;;;5057747;28;19947;-59
2021/01/12 12:00:32;;;;;;;;;;;;;;;;;;5059920;28;19923;-58
2021/01/12 12:02:58;;;;;;;;;;;;;;;;;;5073177;28;19912;-58
2021/01/12 12:05:24;;;;;;;;;;;;;;;;;;5073189;28;19925;-58
2021/01/12 12:07:50;;;;;;;;;;;;;;;;;;5060409;28;19929;-58
2021/01/12 12:10:16;;;;;;;;;;;;;;;;;;5069105;28;19926;-58
2021/01/12 12:12:42;;;;;;;;;;;;;;;;;;5065375;28;19997;-58
2021/01/12 12:15:10;;;;;;;;;;;;;;;;;;5070243;28;19929;-58
2021/01/12 12:17:36;;;;;;;;;;;;;;;;;;5057209;28;19950;-59
2021/01/12 12:20:02;;;;;;;;;;;;;;;;;;5057187;28;19923;-59
2021/01/12 12:22:28;;;;;;;;;;;;;;;;;;5056915;28;19922;-58
2021/01/12 12:24:54;;;;;;;;;;;;;;;;;;5056892;28;19953;-58
2021/01/12 12:27:21;;;;;;;;;;;;;;;;;;5056720;28;19925;-58
2021/01/12 12:29:47;;;;;;;;;;;;;;;;;;5056841;28;20015;-58
2021/01/12 12:32:13;;;;;;;;;;;;;;;;;;5056719;28;19979;-59
2021/01/12 12:34:39;;;;;;;;;;;;;;;;;;5056636;28;20280;-58
2021/01/12 12:37:09;;;;;;;;;;;;;;;;;;5056599;28;19951;-59
2021/01/12 12:39:35;;;;;;;;;;;;;;;;;;5056790;28;19923;-58
2021/01/12 12:42:01;;;;;;;;;;;;;;;;;;5056840;28;19939;-59
2021/01/12 12:44:27;;;;;;;;;;;;;;;;;;5056842;28;19924;-59
2021/01/12 12:46:53;;;;;;;;;;;;;;;;;;5056454;28;19925;-59
2021/01/12 12:49:19;;;;;;;;;;;;;;;;;;5056432;28;19959;-58
2021/01/12 12:51:45;;;;;;;;;;;;;;;;;;5056404;28;19924;-58
2021/01/12 12:54:11;;;;;;;;;;;;;;;;;;5056591;28;19926;-58
2021/01/12 12:56:37;;;;;;;;;;;;;;;;;;5060680;28;19932;-58
2021/01/12 12:59:03;;;;;;;;;;;;;;;;;;5061273;28;19946;-59
2021/01/12 13:01:29;;;;;;;;;;;;;;;;;;5068603;28;19923;-59
2021/01/12 13:03:55;;;;;;;;;;;;;;;;;;5056304;28;19975;-59
2021/01/12 13:06:21;;;;;;;;;;;;;;;;;;5061218;28;19925;-58
2021/01/12 13:08:47;;;;;;;;;;;;;;;;;;5063623;28;19933;-58
2021/01/12 13:11:13;;;;;;;;;;;;;;;;;;5064517;28;19941;-58
2021/01/12 13:13:39;;;;;;;;;;;;;;;;;;5063286;28;20411;-59
2021/01/12 13:16:05;;;;;;;;;;;;;;;;;;5055945;28;20008;-59
2021/01/12 13:18:32;;;;;;;;;;;;;;;;;;5055916;28;19947;-59
2021/01/12 13:20:58;;;;;;;;;;;;;;;;;;5056304;28;20014;-59
2021/01/12 13:23:24;;;;;;;;;;;;;;;;;;5075925;28;20391;-58
2021/01/12 13:25:51;;;;;;;;;;;;;;;;;;5072593;28;19931;-58
2021/01/12 13:28:17;;;;;;;;;;;;;;;;;;5055810;28;19955;-57
2021/01/12 13:30:44;;;;;;;;;;;;;;;;;;5055946;28;19920;-59
2021/01/12 13:33:10;;;;;;;;;;;;;;;;;;5056042;28;19931;-59
2021/01/12 13:35:36;;;;;;;;;;;;;;;;;;5056002;28;20437;-59
2021/01/12 13:38:02;;;;;;;;;;;;;;;;;;5055479;28;19956;-59
2021/01/12 13:40:28;;;;;;;;;;;;;;;;;;5037858;28;19913;-59
2021/01/12 13:42:58;;;;;;;;;;;;;;;;;;5055941;28;19926;-59
2021/01/12 13:45:24;;;;;;;;;;;;;;;;;;5055530;28;19931;-58
2021/01/12 13:47:50;;;;;;;;;;;;;;;;;;5055449;28;20288;-57
2021/01/12 13:50:16;;;;;;;;;;;;;;;;;;5066973;28;20338;-59
2021/01/12 13:52:42;;;;;;;;;;;;;;;;;;5063954;28;19992;-57
2021/01/12 13:55:08;;;;;;;;;;;;;;;;;;5071278;28;19965;-58
2021/01/12 13:57:34;;;;;;;;;;;;;;;;;;5063955;28;20248;-57
2021/01/12 14:00:00;;;;;;;;;;;;;;;;;;5064062;28;20402;-58
2021/01/12 14:02:26;;;;;;;;;;;;;;;;;;5063627;28;19923;-58
2021/01/12 14:04:52;;;;;;;;;;;;;;;;;;5065043;28;19930;-58
2021/01/12 14:07:18;;;;;;;;;;;;;;;;;;5065643;28;19996;-54
2021/01/12 14:09:44;;;;;;;;;;;;;;;;;;5063326;28;20329;-58
2021/01/12 14:12:10;;;;;;;;;;;;;;;;;;5061582;28;19912;-59
2021/01/12 14:14:38;;;;;;;;;;;;;;;;;;5055046;28;20400;-58
2021/01/12 14:17:04;;;;;;;;;;;;;;;;;;5054901;28;19929;-59
2021/01/12 14:19:30;;;;;;;;;;;;;;;;;;5054728;28;20479;-59
2021/01/12 14:21:58;;;;;;;;;;;;;;;;;;5037017;28;19912;-59
2021/01/12 14:24:24;;;;;;;;;;;;;;;;;;5055038;28;19960;-56
2021/01/12 14:26:50;;;;;;;;;;;;;;;;;;5062997;28;20284;-58
2021/01/12 14:29:16;;;;;;;;;;;;;;;;;;5074992;28;19927;-58
2021/01/12 14:31:42;;;;;;;;;;;;;;;;;;5074920;28;19925;-60
2021/01/12 14:34:08;;;;;;;;;;;;;;;;;;5067822;28;20403;-59
2021/01/12 14:36:34;;;;;;;;;;;;;;;;;;5063377;28;19974;-59
2021/01/12 14:39:00;;;;;;;;;;;;;;;;;;5062352;28;19997;-59
2021/01/12 14:41:26;;;;;;;;;;;;;;;;;;5050842;28;19927;-55
2021/01/12 14:43:52;;;;;;;;;;;;;;;;;;5076766;28;20268;-59
2021/01/12 14:46:18;;;;;;;;;;;;;;;;;;5086220;28;19974;-50
2021/01/12 14:48:44;;;;;;;;;;;;;;;;;;5063148;28;19919;-52
2021/01/12 14:51:10;;;;;;;;;;;;;;;;;;5065351;28;20362;-58
2021/01/12 14:53:36;;;;;;;;;;;;;;;;;;5074272;28;19924;-54
2021/01/12 14:56:02;;;;;;;;;;;;;;;;;;5074305;28;19925;-56
2021/01/12 14:58:28;;;;;;;;;;;;;;;;;;5065557;28;20342;-57
2021/01/12 15:00:54;;;;;;;;;;;;;;;;;;5054273;28;19924;-58
2021/01/12 15:03:20;;;;;;;;;;;;;;;;;;5054116;28;19925;-59
2021/01/12 15:05:46;;;;;;;;;;;;;;;;;;5054239;28;19925;-59
2021/01/12 15:08:12;;;;;;;;;;;;;;;;;;5054115;28;20030;-59
2021/01/12 15:10:38;;;;;;;;;;;;;;;;;;5059342;28;19931;-59
2021/01/12 15:13:04;;;;;;;;;;;;;;;;;;5066313;28;19923;-59
2021/01/12 15:15:30;;;;;;;;;;;;;;;;;;5074121;28;20020;-59
2021/01/12 15:17:56;;;;;;;;;;;;;;;;;;5073635;28;20342;-59
2021/01/12 15:20:22;;;;;;;;;;;;;;;;;;5074279;28;19925;-59
2021/01/12 15:22:48;;;;;;;;;;;;;;;;;;5068232;28;20437;-59
2021/01/12 15:25:14;;;;;;;;;;;;;;;;;;5053174;28;19928;-58
2021/01/12 15:27:40;;;;;;;;;;;;;;;;;;5064605;28;20385;-59
2021/01/12 15:30:06;;;;;;;;;;;;;;;;;;5055193;28;19955;-58
2021/01/12 15:32:32;;;;;;;;;;;;;;;;;;5053166;28;19922;-59
2021/01/12 15:34:57;;;;;;;;;;;;;;;;;;5053845;28;19920;-58
2021/01/12 15:37:23;;;;;;;;;;;;;;;;;;5053129;28;20423;-59
2021/01/12 15:39:49;;;;;;;;;;;;;;;;;;5053691;28;19935;-59
2021/01/12 15:42:15;;;;;;;;;;;;;;;;;;5053730;28;19930;-60
2021/01/12 15:44:41;;;;;;;;;;;;;;;;;;5053728;28;19925;-58
2021/01/12 15:47:07;;;;;;;;;;;;;;;;;;5053440;28;19928;-59
2021/01/12 15:49:33;;;;;;;;;;;;;;;;;;5058815;28;20031;-58
2021/01/12 15:51:59;;;;;;;;;;;;;;;;;;5066348;28;20382;-59
2021/01/12 15:54:25;;;;;;;;;;;;;;;;;;5053760;28;19913;-57
2021/01/12 15:56:51;;;;;;;;;;;;;;;;;;5066239;28;20119;-57
2021/01/12 15:59:17;;;;;;;;;;;;;;;;;;5061650;28;20030;-58
2021/01/12 16:01:43;;;;;;;;;;;;;;;;;;5055098;28;20020;-59
2021/01/12 16:04:09;;;;;;;;;;;;;;;;;;5053525;28;19980;-58
2021/01/12 16:06:35;;;;;;;;;;;;;;;;;;5057205;28;19954;-59
2021/01/12 16:09:01;;;;;;;;;;;;;;;;;;5053252;28;20289;-59
2021/01/12 16:11:27;;;;;;;;;;;;;;;;;;5052974;28;19932;-58
2021/01/12 16:13:53;;;;;;;;;;;;;;;;;;5052623;28;19929;-59
2021/01/12 16:16:19;;;;;;;;;;;;;;;;;;5052174;28;19927;-59
2021/01/12 16:18:45;;;;;;;;;;;;;;;;;;5052865;28;19951;-59
2021/01/12 16:21:11;;;;;;;;;;;;;;;;;;5053350;28;19969;-59
2021/01/12 16:23:37;;;;;;;;;;;;;;;;;;5053176;28;19942;-59
2021/01/12 16:26:03;;;;;;;;;;;;;;;;;;5053272;28;19919;-59
2021/01/12 16:28:29;;;;;;;;;;;;;;;;;;5053237;28;20007;-59
2021/01/12 16:30:55;;;;;;;;;;;;;;;;;;5053210;28;19929;-59
2021/01/12 16:33:28;;;;;;;;;;;;;;;;;;5052943;28;20037;-59
2021/01/12 16:35:54;;;;;;;;;;;;;;;;;;5053442;28;20306;-59
2021/01/12 16:38:20;;;;;;;;;;;;;;;;;;5052945;28;19955;-59